sensor_id;sensor_type;location;lat;lon;timestamp;P1;durP1;ratioP1;P2;durP2;ratioP2
8060;SDS011;4073;42.626;25.386;2023-02-01T00:01:41;6.00;;;4.53;;
8060;SDS011;4073;42.626;25.386;2023-02-01T00:04:06;11.40;;;6.27;;
8060;SDS011;4073;42.626;25.386;2023-02-01T00:06:32;4.90;;;3.93;;
8060;SDS011;4073;42.626;25.386;2023-02-01T00:08:57;4.83;;;3.73;;
8060;SDS011;4073;42.626;25.386;2023-02-01T00:11:23;3.03;;;2.50;;
8060;SDS011;4073;42.626;25.386;2023-02-01T00:13:49;3.50;;;2.80;;
8060;SDS011;4073;42.626;25.386;2023-02-01T00:16:22;10.37;;;6.50;;
8060;SDS011;4073;42.626;25.386;2023-02-01T00:18:50;3.27;;;2.97;;
8060;SDS011;4073;42.626;25.386;2023-02-01T00:21:18;3.47;;;3.17;;
8060;SDS011;4073;42.626;25.386;2023-02-01T00:23:45;3.67;;;3.20;;
8060;SDS011;4073;42.626;25.386;2023-02-01T00:26:13;5.13;;;3.43;;
8060;SDS011;4073;42.626;25.386;2023-02-01T00:28:44;4.67;;;4.00;;
8060;SDS011;4073;42.626;25.386;2023-02-01T00:31:10;6.70;;;5.33;;
8060;SDS011;4073;42.626;25.386;2023-02-01T00:33:36;5.37;;;4.63;;
8060;SDS011;4073;42.626;25.386;2023-02-01T00:36:03;4.07;;;3.27;;
8060;SDS011;4073;42.626;25.386;2023-02-01T00:38:30;16.03;;;12.53;;
8060;SDS011;4073;42.626;25.386;2023-02-01T00:41:04;4.67;;;4.10;;
8060;SDS011;4073;42.626;25.386;2023-02-01T00:43:31;3.43;;;2.97;;
8060;SDS011;4073;42.626;25.386;2023-02-01T00:45:57;3.93;;;3.53;;
8060;SDS011;4073;42.626;25.386;2023-02-01T00:48:23;20.70;;;12.97;;
8060;SDS011;4073;42.626;25.386;2023-02-01T00:50:50;24.77;;;17.10;;
8060;SDS011;4073;42.626;25.386;2023-02-01T00:53:15;10.77;;;8.53;;
8060;SDS011;4073;42.626;25.386;2023-02-01T00:55:44;17.30;;;11.80;;
8060;SDS011;4073;42.626;25.386;2023-02-01T00:58:10;16.03;;;10.70;;
8060;SDS011;4073;42.626;25.386;2023-02-01T01:00:36;16.40;;;10.80;;
8060;SDS011;4073;42.626;25.386;2023-02-01T01:03:01;40.80;;;24.80;;
8060;SDS011;4073;42.626;25.386;2023-02-01T01:05:27;7.87;;;5.87;;
8060;SDS011;4073;42.626;25.386;2023-02-01T01:07:53;40.10;;;27.17;;
8060;SDS011;4073;42.626;25.386;2023-02-01T01:10:19;24.77;;;16.13;;
8060;SDS011;4073;42.626;25.386;2023-02-01T01:12:44;14.60;;;11.60;;
8060;SDS011;4073;42.626;25.386;2023-02-01T01:15:10;7.87;;;6.30;;
8060;SDS011;4073;42.626;25.386;2023-02-01T01:17:35;6.03;;;4.90;;
8060;SDS011;4073;42.626;25.386;2023-02-01T01:20:01;7.00;;;4.90;;
8060;SDS011;4073;42.626;25.386;2023-02-01T01:22:28;5.93;;;5.30;;
8060;SDS011;4073;42.626;25.386;2023-02-01T01:24:53;7.00;;;4.50;;
8060;SDS011;4073;42.626;25.386;2023-02-01T01:27:19;6.10;;;4.60;;
8060;SDS011;4073;42.626;25.386;2023-02-01T01:29:48;7.23;;;6.27;;
8060;SDS011;4073;42.626;25.386;2023-02-01T01:32:14;14.37;;;8.33;;
8060;SDS011;4073;42.626;25.386;2023-02-01T01:34:39;10.27;;;7.20;;
8060;SDS011;4073;42.626;25.386;2023-02-01T01:37:05;6.53;;;5.37;;
8060;SDS011;4073;42.626;25.386;2023-02-01T01:39:30;11.83;;;8.80;;
8060;SDS011;4073;42.626;25.386;2023-02-01T01:41:56;11.30;;;7.97;;
8060;SDS011;4073;42.626;25.386;2023-02-01T01:47:21;7.23;;;5.20;;
8060;SDS011;4073;42.626;25.386;2023-02-01T01:49:47;10.33;;;7.73;;
8060;SDS011;4073;42.626;25.386;2023-02-01T01:52:12;6.43;;;5.20;;
8060;SDS011;4073;42.626;25.386;2023-02-01T01:54:41;5.63;;;4.40;;
8060;SDS011;4073;42.626;25.386;2023-02-01T01:57:14;7.43;;;5.73;;
8060;SDS011;4073;42.626;25.386;2023-02-01T01:59:46;10.60;;;8.70;;
8060;SDS011;4073;42.626;25.386;2023-02-01T02:02:15;10.03;;;6.57;;
8060;SDS011;4073;42.626;25.386;2023-02-01T02:04:41;6.47;;;5.40;;
8060;SDS011;4073;42.626;25.386;2023-02-01T02:07:08;10.30;;;6.67;;
8060;SDS011;4073;42.626;25.386;2023-02-01T02:09:34;6.43;;;5.40;;
8060;SDS011;4073;42.626;25.386;2023-02-01T02:12:00;5.77;;;4.60;;
8060;SDS011;4073;42.626;25.386;2023-02-01T02:14:25;4.83;;;4.33;;
8060;SDS011;4073;42.626;25.386;2023-02-01T02:16:55;5.43;;;4.47;;
8060;SDS011;4073;42.626;25.386;2023-02-01T02:36:18;5.23;;;3.77;;
8060;SDS011;4073;42.626;25.386;2023-02-01T02:38:58;7.23;;;4.80;;
8060;SDS011;4073;42.626;25.386;2023-02-01T02:41:33;5.90;;;4.47;;
8060;SDS011;4073;42.626;25.386;2023-02-01T02:44:21;6.10;;;3.33;;
8060;SDS011;4073;42.626;25.386;2023-02-01T02:47:51;6.43;;;4.00;;
8060;SDS011;4073;42.626;25.386;2023-02-01T02:50:51;8.40;;;5.50;;
8060;SDS011;4073;42.626;25.386;2023-02-01T02:56:43;25.03;;;14.27;;
8060;SDS011;4073;42.626;25.386;2023-02-01T02:59:28;8.73;;;5.77;;
8060;SDS011;4073;42.626;25.386;2023-02-01T03:02:14;3.93;;;3.27;;
8060;SDS011;4073;42.626;25.386;2023-02-01T03:04:59;5.87;;;4.40;;
8060;SDS011;4073;42.626;25.386;2023-02-01T03:10:22;21.63;;;12.47;;
8060;SDS011;4073;42.626;25.386;2023-02-01T03:12:49;28.30;;;15.47;;
8060;SDS011;4073;42.626;25.386;2023-02-01T03:15:21;21.00;;;10.70;;
8060;SDS011;4073;42.626;25.386;2023-02-01T03:17:51;8.80;;;3.93;;
8060;SDS011;4073;42.626;25.386;2023-02-01T03:20:20;6.20;;;4.10;;
8060;SDS011;4073;42.626;25.386;2023-02-01T03:22:48;6.43;;;4.80;;
8060;SDS011;4073;42.626;25.386;2023-02-01T03:25:18;6.30;;;3.60;;
8060;SDS011;4073;42.626;25.386;2023-02-01T03:27:59;3.57;;;1.87;;
8060;SDS011;4073;42.626;25.386;2023-02-01T03:30:28;3.97;;;2.87;;
8060;SDS011;4073;42.626;25.386;2023-02-01T03:32:58;3.20;;;1.90;;
8060;SDS011;4073;42.626;25.386;2023-02-01T03:35:48;2.40;;;2.20;;
8060;SDS011;4073;42.626;25.386;2023-02-01T03:38:31;3.33;;;2.23;;
8060;SDS011;4073;42.626;25.386;2023-02-01T03:44:29;2.17;;;1.80;;
8060;SDS011;4073;42.626;25.386;2023-02-01T03:47:02;4.47;;;2.20;;
8060;SDS011;4073;42.626;25.386;2023-02-01T03:49:34;5.87;;;2.30;;
8060;SDS011;4073;42.626;25.386;2023-02-01T03:52:04;2.93;;;2.40;;
8060;SDS011;4073;42.626;25.386;2023-02-01T03:54:33;6.60;;;3.40;;
8060;SDS011;4073;42.626;25.386;2023-02-01T03:56:59;2.10;;;1.87;;
8060;SDS011;4073;42.626;25.386;2023-02-01T03:59:28;1.73;;;1.60;;
8060;SDS011;4073;42.626;25.386;2023-02-01T04:01:53;3.30;;;2.20;;
8060;SDS011;4073;42.626;25.386;2023-02-01T04:04:18;3.67;;;2.30;;
8060;SDS011;4073;42.626;25.386;2023-02-01T04:06:47;6.03;;;3.43;;
8060;SDS011;4073;42.626;25.386;2023-02-01T04:09:16;4.60;;;2.10;;
8060;SDS011;4073;42.626;25.386;2023-02-01T04:11:42;3.50;;;2.57;;
8060;SDS011;4073;42.626;25.386;2023-02-01T04:14:08;6.53;;;1.93;;
8060;SDS011;4073;42.626;25.386;2023-02-01T04:16:34;2.47;;;2.10;;
8060;SDS011;4073;42.626;25.386;2023-02-01T04:19:00;2.37;;;2.07;;
8060;SDS011;4073;42.626;25.386;2023-02-01T04:21:25;5.10;;;2.97;;
8060;SDS011;4073;42.626;25.386;2023-02-01T04:23:51;3.47;;;3.17;;
8060;SDS011;4073;42.626;25.386;2023-02-01T04:26:17;6.17;;;3.30;;
8060;SDS011;4073;42.626;25.386;2023-02-01T04:28:43;5.73;;;2.80;;
8060;SDS011;4073;42.626;25.386;2023-02-01T04:31:09;3.67;;;3.33;;
8060;SDS011;4073;42.626;25.386;2023-02-01T04:33:34;6.63;;;4.07;;
8060;SDS011;4073;42.626;25.386;2023-02-01T04:36:00;2.70;;;2.50;;
8060;SDS011;4073;42.626;25.386;2023-02-01T04:38:25;3.10;;;2.70;;
8060;SDS011;4073;42.626;25.386;2023-02-01T04:40:54;4.13;;;2.63;;
8060;SDS011;4073;42.626;25.386;2023-02-01T04:43:19;4.43;;;3.20;;
8060;SDS011;4073;42.626;25.386;2023-02-01T04:45:48;2.83;;;2.53;;
8060;SDS011;4073;42.626;25.386;2023-02-01T04:48:14;3.67;;;2.63;;
8060;SDS011;4073;42.626;25.386;2023-02-01T04:50:41;2.83;;;2.43;;
8060;SDS011;4073;42.626;25.386;2023-02-01T04:53:07;6.53;;;2.30;;
8060;SDS011;4073;42.626;25.386;2023-02-01T04:55:33;4.83;;;2.50;;
8060;SDS011;4073;42.626;25.386;2023-02-01T04:57:58;2.67;;;2.43;;
8060;SDS011;4073;42.626;25.386;2023-02-01T05:00:23;3.23;;;2.57;;
8060;SDS011;4073;42.626;25.386;2023-02-01T05:02:49;4.03;;;2.73;;
8060;SDS011;4073;42.626;25.386;2023-02-01T05:05:15;3.43;;;3.10;;
8060;SDS011;4073;42.626;25.386;2023-02-01T05:07:40;3.20;;;2.47;;
8060;SDS011;4073;42.626;25.386;2023-02-01T05:10:06;3.37;;;2.73;;
8060;SDS011;4073;42.626;25.386;2023-02-01T05:12:32;3.80;;;2.67;;
8060;SDS011;4073;42.626;25.386;2023-02-01T05:15:16;19.57;;;9.27;;
8060;SDS011;4073;42.626;25.386;2023-02-01T05:17:41;5.40;;;4.47;;
8060;SDS011;4073;42.626;25.386;2023-02-01T05:20:07;12.50;;;7.50;;
8060;SDS011;4073;42.626;25.386;2023-02-01T05:22:33;5.90;;;4.87;;
8060;SDS011;4073;42.626;25.386;2023-02-01T05:24:59;5.07;;;3.47;;
8060;SDS011;4073;42.626;25.386;2023-02-01T05:27:24;3.63;;;2.97;;
8060;SDS011;4073;42.626;25.386;2023-02-01T05:29:50;5.80;;;4.57;;
8060;SDS011;4073;42.626;25.386;2023-02-01T05:32:15;5.50;;;4.20;;
8060;SDS011;4073;42.626;25.386;2023-02-01T05:34:41;8.40;;;3.80;;
8060;SDS011;4073;42.626;25.386;2023-02-01T05:37:06;4.57;;;3.50;;
8060;SDS011;4073;42.626;25.386;2023-02-01T05:39:31;6.77;;;5.20;;
8060;SDS011;4073;42.626;25.386;2023-02-01T05:41:57;7.80;;;5.93;;
8060;SDS011;4073;42.626;25.386;2023-02-01T05:44:22;5.37;;;4.13;;
8060;SDS011;4073;42.626;25.386;2023-02-01T05:46:48;9.27;;;3.53;;
8060;SDS011;4073;42.626;25.386;2023-02-01T05:49:13;3.17;;;2.87;;
8060;SDS011;4073;42.626;25.386;2023-02-01T05:51:39;4.93;;;2.83;;
8060;SDS011;4073;42.626;25.386;2023-02-01T05:54:04;5.30;;;3.83;;
8060;SDS011;4073;42.626;25.386;2023-02-01T05:56:29;9.20;;;4.87;;
8060;SDS011;4073;42.626;25.386;2023-02-01T05:58:55;5.73;;;3.60;;
8060;SDS011;4073;42.626;25.386;2023-02-01T06:01:20;4.80;;;3.60;;
8060;SDS011;4073;42.626;25.386;2023-02-01T06:03:46;3.60;;;3.30;;
8060;SDS011;4073;42.626;25.386;2023-02-01T06:06:11;4.47;;;4.07;;
8060;SDS011;4073;42.626;25.386;2023-02-01T06:08:36;4.80;;;3.90;;
8060;SDS011;4073;42.626;25.386;2023-02-01T06:11:05;5.33;;;3.87;;
8060;SDS011;4073;42.626;25.386;2023-02-01T06:13:31;7.27;;;3.63;;
8060;SDS011;4073;42.626;25.386;2023-02-01T06:15:57;3.10;;;2.77;;
8060;SDS011;4073;42.626;25.386;2023-02-01T06:18:23;3.93;;;2.83;;
8060;SDS011;4073;42.626;25.386;2023-02-01T06:20:55;5.70;;;3.30;;
8060;SDS011;4073;42.626;25.386;2023-02-01T06:23:22;7.43;;;5.07;;
8060;SDS011;4073;42.626;25.386;2023-02-01T06:26:22;5.07;;;4.00;;
8060;SDS011;4073;42.626;25.386;2023-02-01T06:28:42;6.07;;;5.25;;
8060;SDS011;4073;42.626;25.386;2023-02-01T06:31:07;8.40;;;7.33;;
8060;SDS011;4073;42.626;25.386;2023-02-01T06:33:33;6.27;;;5.03;;
8060;SDS011;4073;42.626;25.386;2023-02-01T06:36:00;7.13;;;5.43;;
8060;SDS011;4073;42.626;25.386;2023-02-01T06:38:28;11.77;;;7.93;;
8060;SDS011;4073;42.626;25.386;2023-02-01T06:40:55;12.30;;;8.03;;
8060;SDS011;4073;42.626;25.386;2023-02-01T06:43:25;6.80;;;5.27;;
8060;SDS011;4073;42.626;25.386;2023-02-01T06:45:52;6.23;;;5.23;;
8060;SDS011;4073;42.626;25.386;2023-02-01T06:48:18;7.33;;;6.17;;
8060;SDS011;4073;42.626;25.386;2023-02-01T06:50:43;9.53;;;6.63;;
8060;SDS011;4073;42.626;25.386;2023-02-01T06:53:09;9.50;;;6.63;;
8060;SDS011;4073;42.626;25.386;2023-02-01T06:55:35;11.20;;;7.03;;
8060;SDS011;4073;42.626;25.386;2023-02-01T06:58:00;7.93;;;6.20;;
8060;SDS011;4073;42.626;25.386;2023-02-01T07:00:27;13.73;;;6.93;;
8060;SDS011;4073;42.626;25.386;2023-02-01T07:02:53;5.63;;;4.33;;
8060;SDS011;4073;42.626;25.386;2023-02-01T07:05:18;5.60;;;4.53;;
8060;SDS011;4073;42.626;25.386;2023-02-01T07:07:44;8.70;;;5.93;;
8060;SDS011;4073;42.626;25.386;2023-02-01T07:10:09;13.73;;;5.97;;
8060;SDS011;4073;42.626;25.386;2023-02-01T07:12:36;6.67;;;4.83;;
8060;SDS011;4073;42.626;25.386;2023-02-01T07:15:02;9.73;;;6.07;;
8060;SDS011;4073;42.626;25.386;2023-02-01T07:17:28;6.70;;;5.20;;
8060;SDS011;4073;42.626;25.386;2023-02-01T07:19:56;7.63;;;4.97;;
8060;SDS011;4073;42.626;25.386;2023-02-01T07:22:24;5.37;;;4.33;;
8060;SDS011;4073;42.626;25.386;2023-02-01T07:24:50;6.70;;;5.30;;
8060;SDS011;4073;42.626;25.386;2023-02-01T07:27:15;7.00;;;5.10;;
8060;SDS011;4073;42.626;25.386;2023-02-01T07:29:41;10.03;;;5.70;;
8060;SDS011;4073;42.626;25.386;2023-02-01T07:32:06;7.37;;;5.63;;
8060;SDS011;4073;42.626;25.386;2023-02-01T07:34:31;8.97;;;6.83;;
8060;SDS011;4073;42.626;25.386;2023-02-01T07:36:57;9.23;;;5.23;;
8060;SDS011;4073;42.626;25.386;2023-02-01T07:39:23;8.87;;;6.03;;
8060;SDS011;4073;42.626;25.386;2023-02-01T07:41:48;15.90;;;12.27;;
8060;SDS011;4073;42.626;25.386;2023-02-01T07:44:14;10.60;;;9.10;;
8060;SDS011;4073;42.626;25.386;2023-02-01T07:46:39;13.90;;;11.03;;
8060;SDS011;4073;42.626;25.386;2023-02-01T07:49:05;6.23;;;5.60;;
8060;SDS011;4073;42.626;25.386;2023-02-01T07:51:31;4.60;;;3.60;;
8060;SDS011;4073;42.626;25.386;2023-02-01T07:53:56;4.60;;;4.20;;
8060;SDS011;4073;42.626;25.386;2023-02-01T07:56:22;4.33;;;3.00;;
8060;SDS011;4073;42.626;25.386;2023-02-01T07:58:51;5.60;;;4.20;;
8060;SDS011;4073;42.626;25.386;2023-02-01T08:01:24;4.47;;;3.97;;
8060;SDS011;4073;42.626;25.386;2023-02-01T08:03:58;4.80;;;3.87;;
8060;SDS011;4073;42.626;25.386;2023-02-01T08:06:26;3.40;;;3.10;;
8060;SDS011;4073;42.626;25.386;2023-02-01T08:08:52;6.03;;;3.97;;
8060;SDS011;4073;42.626;25.386;2023-02-01T08:11:18;5.43;;;3.83;;
8060;SDS011;4073;42.626;25.386;2023-02-01T08:13:45;6.17;;;5.50;;
8060;SDS011;4073;42.626;25.386;2023-02-01T08:16:12;6.23;;;4.70;;
8060;SDS011;4073;42.626;25.386;2023-02-01T08:18:38;5.33;;;4.70;;
8060;SDS011;4073;42.626;25.386;2023-02-01T08:21:05;8.30;;;4.87;;
8060;SDS011;4073;42.626;25.386;2023-02-01T08:23:32;6.80;;;3.70;;
8060;SDS011;4073;42.626;25.386;2023-02-01T08:26:06;4.40;;;3.40;;
8060;SDS011;4073;42.626;25.386;2023-02-01T08:28:33;3.83;;;2.83;;
8060;SDS011;4073;42.626;25.386;2023-02-01T08:30:58;3.67;;;3.27;;
8060;SDS011;4073;42.626;25.386;2023-02-01T08:33:24;5.07;;;2.73;;
8060;SDS011;4073;42.626;25.386;2023-02-01T08:35:50;3.47;;;2.57;;
8060;SDS011;4073;42.626;25.386;2023-02-01T08:38:15;6.67;;;4.23;;
8060;SDS011;4073;42.626;25.386;2023-02-01T08:40:40;4.23;;;2.93;;
8060;SDS011;4073;42.626;25.386;2023-02-01T08:43:06;6.80;;;4.70;;
8060;SDS011;4073;42.626;25.386;2023-02-01T08:45:32;5.97;;;4.27;;
8060;SDS011;4073;42.626;25.386;2023-02-01T08:47:59;5.50;;;4.70;;
8060;SDS011;4073;42.626;25.386;2023-02-01T08:50:24;6.10;;;4.10;;
8060;SDS011;4073;42.626;25.386;2023-02-01T08:52:51;7.43;;;5.27;;
8060;SDS011;4073;42.626;25.386;2023-02-01T08:55:17;6.13;;;5.20;;
8060;SDS011;4073;42.626;25.386;2023-02-01T08:57:43;6.07;;;4.97;;
8060;SDS011;4073;42.626;25.386;2023-02-01T09:00:11;4.13;;;3.30;;
8060;SDS011;4073;42.626;25.386;2023-02-01T09:02:38;3.90;;;3.57;;
8060;SDS011;4073;42.626;25.386;2023-02-01T09:05:05;5.87;;;4.37;;
8060;SDS011;4073;42.626;25.386;2023-02-01T09:07:31;7.90;;;5.10;;
8060;SDS011;4073;42.626;25.386;2023-02-01T09:09:57;4.37;;;3.80;;
8060;SDS011;4073;42.626;25.386;2023-02-01T09:12:25;4.17;;;3.83;;
8060;SDS011;4073;42.626;25.386;2023-02-01T09:14:56;6.03;;;4.53;;
8060;SDS011;4073;42.626;25.386;2023-02-01T09:17:24;5.60;;;4.73;;
8060;SDS011;4073;42.626;25.386;2023-02-01T09:19:52;6.30;;;4.50;;
8060;SDS011;4073;42.626;25.386;2023-02-01T09:22:18;6.07;;;5.33;;
8060;SDS011;4073;42.626;25.386;2023-02-01T09:24:43;12.27;;;7.20;;
8060;SDS011;4073;42.626;25.386;2023-02-01T09:27:09;11.23;;;6.17;;
8060;SDS011;4073;42.626;25.386;2023-02-01T09:29:34;4.73;;;4.33;;
8060;SDS011;4073;42.626;25.386;2023-02-01T09:32:00;5.93;;;5.17;;
8060;SDS011;4073;42.626;25.386;2023-02-01T09:34:25;3.80;;;3.47;;
8060;SDS011;4073;42.626;25.386;2023-02-01T09:36:51;10.60;;;7.70;;
8060;SDS011;4073;42.626;25.386;2023-02-01T09:39:16;14.10;;;8.67;;
8060;SDS011;4073;42.626;25.386;2023-02-01T09:47:18;17.37;;;10.90;;
8060;SDS011;4073;42.626;25.386;2023-02-01T09:50:04;12.57;;;8.10;;
8060;SDS011;4073;42.626;25.386;2023-02-01T09:53:13;10.30;;;7.43;;
8060;SDS011;4073;42.626;25.386;2023-02-01T09:58:00;7.87;;;6.00;;
8060;SDS011;4073;42.626;25.386;2023-02-01T10:00:33;8.30;;;6.57;;
8060;SDS011;4073;42.626;25.386;2023-02-01T10:03:03;6.07;;;5.47;;
8060;SDS011;4073;42.626;25.386;2023-02-01T10:05:42;4.13;;;3.73;;
8060;SDS011;4073;42.626;25.386;2023-02-01T10:08:54;5.93;;;4.40;;
8060;SDS011;4073;42.626;25.386;2023-02-01T10:16:55;11.63;;;7.60;;
8060;SDS011;4073;42.626;25.386;2023-02-01T10:27:44;4.53;;;3.80;;
8060;SDS011;4073;42.626;25.386;2023-02-01T10:32:47;3.50;;;3.20;;
8060;SDS011;4073;42.626;25.386;2023-02-01T10:35:18;5.83;;;3.90;;
8060;SDS011;4073;42.626;25.386;2023-02-01T10:37:51;2.67;;;2.47;;
8060;SDS011;4073;42.626;25.386;2023-02-01T10:42:54;4.97;;;4.17;;
8060;SDS011;4073;42.626;25.386;2023-02-01T10:45:25;4.20;;;3.80;;
8060;SDS011;4073;42.626;25.386;2023-02-01T10:47:53;12.37;;;7.67;;
8060;SDS011;4073;42.626;25.386;2023-02-01T10:52:54;22.50;;;13.67;;
8060;SDS011;4073;42.626;25.386;2023-02-01T10:55:28;14.37;;;9.90;;
8060;SDS011;4073;42.626;25.386;2023-02-01T10:58:01;11.00;;;8.27;;
8060;SDS011;4073;42.626;25.386;2023-02-01T11:00:48;10.30;;;7.90;;
8060;SDS011;4073;42.626;25.386;2023-02-01T11:06:00;6.33;;;5.73;;
8060;SDS011;4073;42.626;25.386;2023-02-01T11:08:30;5.60;;;4.70;;
8060;SDS011;4073;42.626;25.386;2023-02-01T11:10:59;5.27;;;4.10;;
8060;SDS011;4073;42.626;25.386;2023-02-01T11:13:28;5.30;;;4.33;;
8060;SDS011;4073;42.626;25.386;2023-02-01T11:15:57;3.83;;;3.27;;
8060;SDS011;4073;42.626;25.386;2023-02-01T11:18:29;5.80;;;5.30;;
8060;SDS011;4073;42.626;25.386;2023-02-01T11:21:00;6.20;;;5.60;;
8060;SDS011;4073;42.626;25.386;2023-02-01T11:23:26;5.53;;;4.80;;
8060;SDS011;4073;42.626;25.386;2023-02-01T11:25:54;6.63;;;4.50;;
8060;SDS011;4073;42.626;25.386;2023-02-01T11:28:25;5.33;;;4.83;;
8060;SDS011;4073;42.626;25.386;2023-02-01T11:30:56;6.93;;;4.93;;
8060;SDS011;4073;42.626;25.386;2023-02-01T11:33:25;6.97;;;5.47;;
8060;SDS011;4073;42.626;25.386;2023-02-01T11:35:56;6.53;;;4.77;;
8060;SDS011;4073;42.626;25.386;2023-02-01T11:38:30;5.97;;;5.00;;
8060;SDS011;4073;42.626;25.386;2023-02-01T11:41:13;3.70;;;3.27;;
8060;SDS011;4073;42.626;25.386;2023-02-01T11:43:52;5.67;;;4.87;;
8060;SDS011;4073;42.626;25.386;2023-02-01T11:46:24;6.97;;;5.10;;
8060;SDS011;4073;42.626;25.386;2023-02-01T11:48:57;5.10;;;4.30;;
8060;SDS011;4073;42.626;25.386;2023-02-01T11:54:19;4.43;;;3.63;;
8060;SDS011;4073;42.626;25.386;2023-02-01T11:56:55;3.60;;;2.83;;
8060;SDS011;4073;42.626;25.386;2023-02-01T12:12:52;4.73;;;3.47;;
8060;SDS011;4073;42.626;25.386;2023-02-01T12:32:20;7.60;;;4.23;;
8060;SDS011;4073;42.626;25.386;2023-02-01T12:34:54;6.50;;;5.40;;
8060;SDS011;4073;42.626;25.386;2023-02-01T12:37:31;5.83;;;4.60;;
8060;SDS011;4073;42.626;25.386;2023-02-01T12:42:53;10.27;;;6.50;;
8060;SDS011;4073;42.626;25.386;2023-02-01T12:45:43;3.90;;;3.60;;
8060;SDS011;4073;42.626;25.386;2023-02-01T12:50:50;7.10;;;4.83;;
8060;SDS011;4073;42.626;25.386;2023-02-01T12:56:21;6.60;;;2.87;;
8060;SDS011;4073;42.626;25.386;2023-02-01T12:59:15;5.43;;;4.27;;
8060;SDS011;4073;42.626;25.386;2023-02-01T13:01:46;6.63;;;3.40;;
8060;SDS011;4073;42.626;25.386;2023-02-01T13:07:07;6.87;;;5.33;;
8060;SDS011;4073;42.626;25.386;2023-02-01T13:09:58;8.53;;;4.37;;
8060;SDS011;4073;42.626;25.386;2023-02-01T13:12:32;3.37;;;3.07;;
8060;SDS011;4073;42.626;25.386;2023-02-01T13:15:05;5.87;;;3.77;;
8060;SDS011;4073;42.626;25.386;2023-02-01T13:17:35;8.37;;;6.67;;
8060;SDS011;4073;42.626;25.386;2023-02-01T13:20:13;4.57;;;3.73;;
8060;SDS011;4073;42.626;25.386;2023-02-01T13:22:46;3.53;;;2.53;;
8060;SDS011;4073;42.626;25.386;2023-02-01T13:25:40;3.90;;;2.80;;
8060;SDS011;4073;42.626;25.386;2023-02-01T13:28:15;4.37;;;2.63;;
8060;SDS011;4073;42.626;25.386;2023-02-01T13:37:05;4.17;;;3.33;;
8060;SDS011;4073;42.626;25.386;2023-02-01T13:39:39;3.10;;;2.47;;
8060;SDS011;4073;42.626;25.386;2023-02-01T13:50:02;3.80;;;3.17;;
8060;SDS011;4073;42.626;25.386;2023-02-01T13:52:38;3.00;;;2.67;;
8060;SDS011;4073;42.626;25.386;2023-02-01T13:57:45;2.97;;;2.67;;
8060;SDS011;4073;42.626;25.386;2023-02-01T14:11:02;7.30;;;4.87;;
8060;SDS011;4073;42.626;25.386;2023-02-01T14:26:21;7.30;;;5.13;;
8060;SDS011;4073;42.626;25.386;2023-02-01T14:28:54;7.17;;;5.73;;
8060;SDS011;4073;42.626;25.386;2023-02-01T14:34:51;4.47;;;4.07;;
8060;SDS011;4073;42.626;25.386;2023-02-01T14:47:46;4.00;;;3.00;;
8060;SDS011;4073;42.626;25.386;2023-02-01T14:50:18;3.70;;;3.00;;
8060;SDS011;4073;42.626;25.386;2023-02-01T14:58:05;4.23;;;2.23;;
8060;SDS011;4073;42.626;25.386;2023-02-01T15:00:46;3.03;;;2.40;;
8060;SDS011;4073;42.626;25.386;2023-02-01T15:05:56;3.20;;;2.90;;
8060;SDS011;4073;42.626;25.386;2023-02-01T15:08:31;4.47;;;3.70;;
8060;SDS011;4073;42.626;25.386;2023-02-01T15:11:08;3.93;;;2.50;;
8060;SDS011;4073;42.626;25.386;2023-02-01T15:13:39;4.57;;;3.13;;
8060;SDS011;4073;42.626;25.386;2023-02-01T15:18:37;5.77;;;3.40;;
8060;SDS011;4073;42.626;25.386;2023-02-01T15:21:04;4.30;;;3.83;;
8060;SDS011;4073;42.626;25.386;2023-02-01T15:23:31;3.47;;;2.77;;
8060;SDS011;4073;42.626;25.386;2023-02-01T15:25:57;3.03;;;2.73;;
8060;SDS011;4073;42.626;25.386;2023-02-01T15:28:24;2.30;;;2.10;;
8060;SDS011;4073;42.626;25.386;2023-02-01T15:31:11;5.30;;;3.00;;
8060;SDS011;4073;42.626;25.386;2023-02-01T15:33:36;3.73;;;2.27;;
8060;SDS011;4073;42.626;25.386;2023-02-01T15:38:43;4.07;;;2.50;;
8060;SDS011;4073;42.626;25.386;2023-02-01T15:41:16;7.47;;;4.07;;
8060;SDS011;4073;42.626;25.386;2023-02-01T15:46:32;4.87;;;4.17;;
8060;SDS011;4073;42.626;25.386;2023-02-01T15:49:01;3.83;;;3.43;;
8060;SDS011;4073;42.626;25.386;2023-02-01T15:51:29;4.30;;;3.43;;
8060;SDS011;4073;42.626;25.386;2023-02-01T15:54:07;7.77;;;4.80;;
8060;SDS011;4073;42.626;25.386;2023-02-01T15:56:39;5.37;;;3.70;;
8060;SDS011;4073;42.626;25.386;2023-02-01T15:59:12;9.07;;;4.63;;
8060;SDS011;4073;42.626;25.386;2023-02-01T16:01:40;8.10;;;5.97;;
8060;SDS011;4073;42.626;25.386;2023-02-01T16:04:16;5.43;;;4.10;;
8060;SDS011;4073;42.626;25.386;2023-02-01T16:09:20;7.70;;;4.90;;
8060;SDS011;4073;42.626;25.386;2023-02-01T16:11:58;8.00;;;6.07;;
8060;SDS011;4073;42.626;25.386;2023-02-01T16:14:25;6.07;;;4.77;;
8060;SDS011;4073;42.626;25.386;2023-02-01T16:16:52;8.53;;;5.23;;
8060;SDS011;4073;42.626;25.386;2023-02-01T16:19:19;6.30;;;5.17;;
8060;SDS011;4073;42.626;25.386;2023-02-01T16:21:45;3.83;;;3.30;;
8060;SDS011;4073;42.626;25.386;2023-02-01T16:24:11;11.40;;;8.07;;
8060;SDS011;4073;42.626;25.386;2023-02-01T16:26:36;10.77;;;8.13;;
8060;SDS011;4073;42.626;25.386;2023-02-01T16:29:03;15.13;;;9.50;;
8060;SDS011;4073;42.626;25.386;2023-02-01T16:31:32;6.03;;;5.10;;
8060;SDS011;4073;42.626;25.386;2023-02-01T16:34:01;5.23;;;3.47;;
8060;SDS011;4073;42.626;25.386;2023-02-01T16:36:27;6.30;;;4.23;;
8060;SDS011;4073;42.626;25.386;2023-02-01T16:38:53;6.33;;;4.07;;
8060;SDS011;4073;42.626;25.386;2023-02-01T16:41:20;7.20;;;3.87;;
8060;SDS011;4073;42.626;25.386;2023-02-01T16:43:51;4.30;;;3.70;;
8060;SDS011;4073;42.626;25.386;2023-02-01T16:46:19;5.57;;;3.80;;
8060;SDS011;4073;42.626;25.386;2023-02-01T16:48:57;6.27;;;5.17;;
8060;SDS011;4073;42.626;25.386;2023-02-01T16:51:24;57.57;;;32.90;;
8060;SDS011;4073;42.626;25.386;2023-02-01T16:53:52;35.37;;;21.27;;
8060;SDS011;4073;42.626;25.386;2023-02-01T16:56:19;28.60;;;16.60;;
8060;SDS011;4073;42.626;25.386;2023-02-01T16:58:48;26.57;;;16.60;;
8060;SDS011;4073;42.626;25.386;2023-02-01T17:01:14;24.93;;;16.00;;
8060;SDS011;4073;42.626;25.386;2023-02-01T17:03:43;23.50;;;15.97;;
8060;SDS011;4073;42.626;25.386;2023-02-01T17:06:10;30.40;;;18.03;;
8060;SDS011;4073;42.626;25.386;2023-02-01T17:08:40;33.53;;;19.67;;
8060;SDS011;4073;42.626;25.386;2023-02-01T17:11:07;22.30;;;14.50;;
8060;SDS011;4073;42.626;25.386;2023-02-01T17:13:35;29.07;;;19.70;;
8060;SDS011;4073;42.626;25.386;2023-02-01T17:16:02;24.83;;;15.33;;
8060;SDS011;4073;42.626;25.386;2023-02-01T17:18:32;22.40;;;16.73;;
8060;SDS011;4073;42.626;25.386;2023-02-01T17:20:59;20.30;;;15.43;;
8060;SDS011;4073;42.626;25.386;2023-02-01T17:23:27;32.50;;;19.90;;
8060;SDS011;4073;42.626;25.386;2023-02-01T17:25:53;33.93;;;22.40;;
8060;SDS011;4073;42.626;25.386;2023-02-01T17:28:19;53.73;;;33.50;;
8060;SDS011;4073;42.626;25.386;2023-02-01T17:30:45;34.07;;;23.83;;
8060;SDS011;4073;42.626;25.386;2023-02-01T17:33:14;41.30;;;22.07;;
8060;SDS011;4073;42.626;25.386;2023-02-01T17:35:59;30.90;;;19.40;;
8060;SDS011;4073;42.626;25.386;2023-02-01T17:38:25;77.90;;;41.53;;
8060;SDS011;4073;42.626;25.386;2023-02-01T17:40:51;96.30;;;50.53;;
8060;SDS011;4073;42.626;25.386;2023-02-01T17:43:20;34.10;;;23.60;;
8060;SDS011;4073;42.626;25.386;2023-02-01T17:48:24;70.87;;;40.93;;
8060;SDS011;4073;42.626;25.386;2023-02-01T17:50:50;44.37;;;29.33;;
8060;SDS011;4073;42.626;25.386;2023-02-01T17:53:23;25.17;;;16.07;;
8060;SDS011;4073;42.626;25.386;2023-02-01T17:55:50;49.83;;;28.33;;
8060;SDS011;4073;42.626;25.386;2023-02-01T17:58:16;33.13;;;18.97;;
8060;SDS011;4073;42.626;25.386;2023-02-01T18:00:43;13.97;;;7.60;;
8060;SDS011;4073;42.626;25.386;2023-02-01T18:03:17;18.87;;;11.97;;
8060;SDS011;4073;42.626;25.386;2023-02-01T18:05:47;29.03;;;17.93;;
8060;SDS011;4073;42.626;25.386;2023-02-01T18:08:17;22.10;;;14.23;;
8060;SDS011;4073;42.626;25.386;2023-02-01T18:10:47;17.70;;;12.20;;